Time;durP1;ratioP1;P1;durP2;ratioP2;P2;SDS_P1;SDS_P2;PMS_P1;PMS_P2;Temp;Humidity;BMP_temperature;BMP_pressure;BME280_temperature;BME280_humidity;BME280_pressure;Samples;Min_cycle;Max_cycle;Signal;HPM_P1;HPM_P2
2021/11/08 00:01:15;;;;;;;0.50;0.40;;;6.30;99.90;;;;;;5073741;28;20205;-78
2021/11/08 00:03:46;;;;;;;0.73;0.68;;;6.30;99.90;;;;;;5073384;28;20197;-76
2021/11/08 00:06:15;;;;;;;0.50;0.40;;;6.40;99.90;;;;;;5074448;28;20235;-76
2021/11/08 00:08:42;;;;;;;0.50;0.50;;;6.40;99.90;;;;;;5074286;28;20215;-76
2021/11/08 00:11:09;;;;;;;0.50;0.40;;;6.50;99.90;;;;;;5074125;28;20198;-77
2021/11/08 00:13:37;;;;;;;0.50;0.40;;;6.60;99.90;;;;;;5073689;28;20214;-77
2021/11/08 00:16:13;;;;;;;0.50;0.40;;;6.60;99.90;;;;;;5073997;28;20235;-77
2021/11/08 00:18:45;;;;;;;4.70;1.02;;;6.70;99.90;;;;;;5074097;28;20219;-77
2021/11/08 00:21:13;;;;;;;0.52;0.52;;;6.70;99.90;;;;;;5073513;28;20225;-77
2021/11/08 00:23:39;;;;;;;0.50;0.40;;;6.70;99.90;;;;;;5074314;28;20201;-79
2021/11/08 00:26:06;;;;;;;0.50;0.40;;;6.80;99.90;;;;;;5073725;28;20194;-76
2021/11/08 00:28:33;;;;;;;3.20;0.95;;;6.80;99.90;;;;;;5073844;28;20218;-76
2021/11/08 00:31:00;;;;;;;0.50;0.50;;;6.80;99.90;;;;;;5073681;28;20706;-76
2021/11/08 00:33:27;;;;;;;1.20;1.13;;;6.80;99.90;;;;;;5074020;28;20582;-77
2021/11/08 00:35:55;;;;;;;0.50;0.50;;;6.80;99.90;;;;;;5073762;28;20199;-77
2021/11/08 00:38:24;;;;;;;0.50;0.40;;;6.80;99.90;;;;;;5073380;28;20210;-77
2021/11/08 00:40:51;;;;;;;0.50;0.40;;;6.80;99.90;;;;;;5073224;28;20194;-73
2021/11/08 00:43:19;;;;;;;0.50;0.40;;;6.80;99.90;;;;;;5073596;28;20195;-77
2021/11/08 00:45:46;;;;;;;0.50;0.40;;;6.80;99.90;;;;;;5073548;28;20202;-77
2021/11/08 00:48:16;;;;;;;0.50;0.40;;;6.80;99.90;;;;;;5073199;28;20214;-77
2021/11/08 00:50:43;;;;;;;0.50;0.40;;;6.80;99.90;;;;;;5073720;28;20183;-77
2021/11/08 00:53:10;;;;;;;3.95;3.60;;;6.70;99.90;;;;;;5073483;28;20225;-77
2021/11/08 00:55:40;;;;;;;0.50;0.40;;;6.80;99.90;;;;;;5073272;28;20205;-77
2021/11/08 00:58:13;;;;;;;0.50;0.40;;;6.80;99.90;;;;;;5072600;28;20210;-77
2021/11/08 01:00:40;;;;;;;2.03;1.92;;;6.90;99.90;;;;;;5073107;28;20697;-77
2021/11/08 01:03:08;;;;;;;0.50;0.40;;;6.80;99.90;;;;;;5072578;28;20196;-76
2021/11/08 01:05:35;;;;;;;0.50;0.40;;;6.90;99.90;;;;;;5073314;28;20191;-77
2021/11/08 01:08:04;;;;;;;0.50;0.40;;;6.90;99.90;;;;;;5073024;28;20218;-77
2021/11/08 01:10:31;;;;;;;1.08;1.02;;;6.90;99.90;;;;;;5072772;28;20194;-77
2021/11/08 01:12:59;;;;;;;0.70;0.70;;;6.90;99.90;;;;;;5072838;28;20217;-76
2021/11/08 01:15:26;;;;;;;0.50;0.40;;;6.90;99.90;;;;;;5072829;28;20200;-77
2021/11/08 01:17:52;;;;;;;0.50;0.40;;;6.80;99.90;;;;;;5072969;28;20210;-77
2021/11/08 01:20:19;;;;;;;0.50;0.40;;;6.80;99.90;;;;;;5072405;28;20197;-77
2021/11/08 01:22:47;;;;;;;0.50;0.40;;;6.70;99.90;;;;;;5072780;28;20563;-77
2021/11/08 01:25:13;;;;;;;0.50;0.40;;;6.60;99.90;;;;;;5072835;28;20196;-77
2021/11/08 01:27:43;;;;;;;0.50;0.40;;;6.60;99.90;;;;;;5072922;28;20216;-76
2021/11/08 01:30:14;;;;;;;0.50;0.40;;;6.60;99.90;;;;;;5072402;28;20195;-77
2021/11/08 01:32:51;;;;;;;0.50;0.40;;;6.50;99.90;;;;;;5072416;28;20301;-77
2021/11/08 01:35:18;;;;;;;0.50;0.40;;;6.50;99.90;;;;;;5072247;28;20655;-76
2021/11/08 01:37:50;;;;;;;0.70;0.70;;;6.40;99.90;;;;;;5072735;28;20250;-76
2021/11/08 01:40:17;;;;;;;2.05;1.85;;;6.40;99.90;;;;;;5072212;28;20563;-77
2021/11/08 01:42:44;;;;;;;0.50;0.50;;;6.50;99.90;;;;;;5072474;28;20194;-77
2021/11/08 01:45:12;;;;;;;4.40;2.65;;;6.50;99.90;;;;;;5072087;28;20198;-76
2021/11/08 01:47:39;;;;;;;0.50;0.40;;;6.50;99.90;;;;;;5072457;28;20214;-76
2021/11/08 01:50:06;;;;;;;0.50;0.40;;;6.60;99.90;;;;;;5071743;28;20208;-73
2021/11/08 01:52:32;;;;;;;1.63;1.52;;;6.60;99.90;;;;;;5072201;28;20205;-77
2021/11/08 01:54:59;;;;;;;0.50;0.45;;;6.70;99.90;;;;;;5072063;28;20200;-77
2021/11/08 01:57:26;;;;;;;9.48;1.15;;;6.70;99.90;;;;;;5072203;28;20214;-75
2021/11/08 01:59:53;;;;;;;0.57;0.57;;;6.70;99.90;;;;;;5072031;28;20201;-77
2021/11/08 02:02:21;;;;;;;1.30;1.15;;;6.70;99.90;;;;;;5070570;28;20210;-77
2021/11/08 02:04:48;;;;;;;1.60;1.50;;;6.70;99.90;;;;;;5072039;28;20680;-77
2021/11/08 02:07:14;;;;;;;0.50;0.47;;;6.60;99.90;;;;;;5072121;28;20583;-77
2021/11/08 02:09:41;;;;;;;2.65;2.15;;;6.60;99.90;;;;;;5071824;28;20194;-76
2021/11/08 02:12:10;;;;;;;1.90;1.80;;;6.60;99.90;;;;;;5071408;28;20199;-77
2021/11/08 02:14:37;;;;;;;1.02;1.02;;;6.50;99.90;;;;;;5072052;28;20258;-76
2021/11/08 02:17:05;;;;;;;0.98;0.98;;;6.40;99.90;;;;;;5071984;28;20202;-76
2021/11/08 02:19:33;;;;;;;15.40;1.60;;;6.40;99.90;;;;;;5071785;28;20199;-77
2021/11/08 02:22:03;;;;;;;0.50;0.40;;;6.40;99.90;;;;;;5071459;28;20197;-76
2021/11/08 02:24:30;;;;;;;2.47;1.45;;;6.30;99.90;;;;;;5071642;28;20187;-77
2021/11/08 02:26:57;;;;;;;0.50;0.40;;;6.30;99.90;;;;;;5071337;28;20553;-77
2021/11/08 02:29:24;;;;;;;0.68;0.68;;;6.30;99.90;;;;;;5072147;28;20289;-77
2021/11/08 02:31:52;;;;;;;0.77;0.77;;;6.20;99.90;;;;;;5071324;28;20195;-76
2021/11/08 02:34:19;;;;;;;1.25;1.15;;;6.20;99.90;;;;;;5071596;28;20268;-76
2021/11/08 02:36:46;;;;;;;1.00;1.00;;;6.20;99.90;;;;;;5071303;28;20198;-75
2021/11/08 02:39:18;;;;;;;2.25;2.05;;;6.20;99.90;;;;;;5071554;28;20284;-76
2021/11/08 02:41:47;;;;;;;1.35;1.35;;;6.20;99.90;;;;;;5071409;28;20194;-77
2021/11/08 02:44:14;;;;;;;8.88;1.23;;;6.10;99.90;;;;;;5071935;28;20308;-77
2021/11/08 02:46:42;;;;;;;0.70;0.70;;;6.20;99.90;;;;;;5071184;28;20190;-76
2021/11/08 02:49:11;;;;;;;4.43;3.28;;;6.10;99.90;;;;;;5070984;28;20223;-77
2021/11/08 02:51:43;;;;;;;1.38;1.27;;;6.20;99.90;;;;;;5071424;28;20249;-77
2021/11/08 02:54:13;;;;;;;0.50;0.50;;;6.20;99.90;;;;;;5071473;28;20198;-77
2021/11/08 02:56:42;;;;;;;1.08;1.08;;;6.10;99.90;;;;;;5071595;28;20182;-76
2021/11/08 02:59:08;;;;;;;5.97;1.83;;;6.10;99.90;;;;;;5071118;28;20221;-77
2021/11/08 03:01:35;;;;;;;1.27;1.17;;;6.10;99.90;;;;;;5071086;28;20292;-76
2021/11/08 03:04:06;;;;;;;0.50;0.40;;;6.10;99.90;;;;;;5070887;28;20195;-76
2021/11/08 03:06:33;;;;;;;0.60;0.60;;;6.10;99.90;;;;;;5071486;28;20209;-77
2021/11/08 03:09:09;;;;;;;2.45;1.60;;;6.10;99.90;;;;;;5071425;28;20251;-77
2021/11/08 03:11:36;;;;;;;1.25;1.15;;;6.20;99.90;;;;;;5070514;28;20182;-77
2021/11/08 03:14:06;;;;;;;0.70;0.70;;;6.20;99.90;;;;;;5071109;28;20305;-76
2021/11/08 03:16:39;;;;;;;1.80;1.70;;;6.20;99.90;;;;;;5071011;28;20197;-76
2021/11/08 03:19:15;;;;;;;2.17;1.38;;;6.20;99.90;;;;;;5071280;28;20219;-77
2021/11/08 03:21:42;;;;;;;2.35;2.25;;;6.20;99.90;;;;;;5070915;28;20291;-77
2021/11/08 03:24:13;;;;;;;1.95;1.83;;;6.30;99.90;;;;;;5070953;28;20193;-76
2021/11/08 03:26:44;;;;;;;2.15;1.88;;;6.30;99.90;;;;;;5070950;28;20237;-77
2021/11/08 03:29:12;;;;;;;0.88;0.85;;;6.30;99.90;;;;;;5071338;28;20189;-75
2021/11/08 03:31:41;;;;;;;1.02;0.70;;;6.40;99.90;;;;;;5072223;28;20206;-77
2021/11/08 03:34:09;;;;;;;5.68;3.63;;;6.30;99.90;;;;;;5074811;28;20213;-76
2021/11/08 03:36:37;;;;;;;1.33;1.33;;;6.30;99.90;;;;;;5074874;28;20222;-76
2021/11/08 03:39:05;;;;;;;2.53;1.35;;;6.30;99.90;;;;;;5074736;28;20215;-77
2021/11/08 03:41:32;;;;;;;1.13;1.02;;;6.30;99.90;;;;;;5074302;28;20286;-77
2021/11/08 03:43:59;;;;;;;2.95;2.67;;;6.30;99.90;;;;;;5074903;28;20243;-76
2021/11/08 03:46:29;;;;;;;1.02;1.02;;;6.20;99.90;;;;;;5074908;28;20194;-77
2021/11/08 03:48:56;;;;;;;0.73;0.73;;;6.20;99.90;;;;;;5073772;28;20233;-76
2021/11/08 03:51:23;;;;;;;0.50;0.43;;;6.20;99.90;;;;;;5074461;28;20610;-77
2021/11/08 03:53:49;;;;;;;1.80;1.58;;;6.20;99.90;;;;;;5074487;28;20582;-76
2021/11/08 03:56:16;;;;;;;2.97;2.20;;;6.20;99.90;;;;;;5074727;28;20203;-76
2021/11/08 03:58:43;;;;;;;4.20;1.65;;;6.20;99.90;;;;;;5074358;28;20214;-77
2021/11/08 04:01:10;;;;;;;1.80;1.70;;;6.10;99.90;;;;;;5073989;28;20194;-76
2021/11/08 04:03:39;;;;;;;2.45;2.15;;;6.10;99.90;;;;;;5073796;28;20194;-77
2021/11/08 04:06:05;;;;;;;1.98;1.88;;;6.10;99.90;;;;;;5074734;28;20629;-77
2021/11/08 04:08:32;;;;;;;0.50;0.50;;;6.10;99.90;;;;;;5074367;28;20225;-76
2021/11/08 04:10:59;;;;;;;2.72;0.93;;;6.10;99.90;;;;;;5073856;28;20191;-77
2021/11/08 04:13:30;;;;;;;1.33;1.25;;;6.10;99.90;;;;;;5074071;28;20194;-77
2021/11/08 04:16:00;;;;;;;2.70;2.50;;;6.10;99.90;;;;;;5074087;28;20632;-77
2021/11/08 04:18:28;;;;;;;0.80;0.60;;;6.10;99.90;;;;;;5074014;28;20223;-76
2021/11/08 04:20:59;;;;;;;2.20;1.92;;;6.10;99.90;;;;;;5073958;28;20190;-76
2021/11/08 04:23:27;;;;;;;2.60;1.60;;;6.10;99.90;;;;;;5073934;28;20248;-77
2021/11/08 04:25:56;;;;;;;3.95;2.83;;;6.10;99.90;;;;;;5073654;28;20205;-77
2021/11/08 04:28:23;;;;;;;1.05;1.05;;;6.10;99.90;;;;;;5074014;28;20210;-76
2021/11/08 04:30:50;;;;;;;0.50;0.47;;;6.10;99.90;;;;;;5073331;28;20285;-76
2021/11/08 04:33:23;;;;;;;0.70;0.70;;;6.10;99.90;;;;;;5073838;28;20194;-76
2021/11/08 04:36:04;;;;;;;0.88;0.85;;;6.10;99.90;;;;;;5073413;28;20194;-76
2021/11/08 04:38:40;;;;;;;0.50;0.40;;;6.20;99.90;;;;;;5073929;28;20565;-77
2021/11/08 04:41:27;;;;;;;1.60;0.75;;;6.20;99.90;;;;;;5073584;28;20187;-77
2021/11/08 04:44:01;;;;;;;15.75;1.30;;;6.10;99.90;;;;;;5073673;28;20174;-77
2021/11/08 04:49:25;;;;;;;9.43;3.10;;;6.20;99.90;;;;;;5073316;28;20221;-77
2021/11/08 04:52:00;;;;;;;0.90;0.68;;;6.30;99.90;;;;;;5073229;28;20214;-76
2021/11/08 04:54:36;;;;;;;1.50;1.50;;;6.30;99.90;;;;;;5073521;28;20222;-77
2021/11/08 04:57:21;;;;;;;1.05;0.90;;;6.40;99.90;;;;;;5073260;28;20242;-77
2021/11/08 05:22:00;;;;;;;0.50;0.40;;;6.30;99.90;;;;;;5072703;28;20678;-76
2021/11/08 05:29:56;;;;;;;29.80;2.60;;;6.20;99.90;;;;;;5072671;28;20208;-75
2021/11/08 05:32:25;;;;;;;6.05;2.20;;;6.20;99.90;;;;;;5072486;28;20199;-77
2021/11/08 05:34:52;;;;;;;9.30;1.10;;;6.20;99.90;;;;;;5072444;28;20216;-77
2021/11/08 05:37:21;;;;;;;0.70;0.70;;;6.20;99.90;;;;;;5072461;28;20264;-76
2021/11/08 05:39:50;;;;;;;0.95;0.95;;;6.30;99.90;;;;;;5072135;28;20670;-77
2021/11/08 05:42:19;;;;;;;15.20;0.93;;;6.20;99.90;;;;;;5072061;28;20202;-76
2021/11/08 05:44:46;;;;;;;0.50;0.50;;;6.20;99.90;;;;;;5072212;28;20195;-77
2021/11/08 05:47:13;;;;;;;1.33;1.10;;;6.20;99.90;;;;;;5072407;28;20213;-76
2021/11/08 05:49:41;;;;;;;1.05;1.05;;;6.20;99.90;;;;;;5072074;28;20204;-77
2021/11/08 05:52:08;;;;;;;26.45;5.43;;;6.20;99.90;;;;;;5072166;28;20262;-76
2021/11/08 05:54:36;;;;;;;0.82;0.82;;;6.20;99.90;;;;;;5071298;28;20248;-76
2021/11/08 05:57:22;;;;;;;3.53;1.42;;;6.20;99.90;;;;;;5072128;28;20195;-76
2021/11/08 06:49:39;;;;;;;0.50;0.40;;;6.10;99.90;;;;;;5051314;28;20246;-76
2021/11/08 06:52:07;;;;;;;1.40;1.23;;;6.20;99.90;;;;;;5051174;28;20217;-76
2021/11/08 06:54:35;;;;;;;0.50;0.40;;;6.20;99.90;;;;;;5051012;28;20221;-76
2021/11/08 06:57:11;;;;;;;0.50;0.40;;;6.20;99.90;;;;;;5050843;28;20544;-76
2021/11/08 06:59:37;;;;;;;1.35;1.33;;;6.20;99.90;;;;;;5051000;28;20552;-76
2021/11/08 07:02:04;;;;;;;0.70;0.70;;;6.20;99.90;;;;;;5050829;28;20191;-76
2021/11/08 07:04:31;;;;;;;0.68;0.68;;;6.20;99.90;;;;;;5051010;28;20191;-76
2021/11/08 07:07:00;;;;;;;0.80;0.60;;;6.30;99.90;;;;;;5054586;28;20579;-77
2021/11/08 07:09:26;;;;;;;0.75;0.75;;;6.30;99.90;;;;;;5054824;28;20204;-76
2021/11/08 07:11:54;;;;;;;5.95;1.75;;;6.40;99.90;;;;;;5054880;28;20258;-76
2021/11/08 07:14:21;;;;;;;15.10;1.80;;;6.40;99.90;;;;;;5069642;28;20582;-76
2021/11/08 07:16:47;;;;;;;2.67;2.40;;;6.40;99.90;;;;;;5074991;28;20200;-76
2021/11/08 07:19:16;;;;;;;5.25;1.90;;;6.50;99.90;;;;;;5075212;28;20206;-76
2021/11/08 07:21:43;;;;;;;1.75;1.65;;;6.50;99.90;;;;;;5074978;28;20199;-74
2021/11/08 07:24:12;;;;;;;1.35;1.15;;;6.60;99.90;;;;;;5075372;28;20196;-76
2021/11/08 07:26:39;;;;;;;3.92;2.63;;;6.60;99.90;;;;;;5074538;28;20206;-76
2021/11/08 07:29:07;;;;;;;0.70;0.70;;;6.80;99.90;;;;;;5074524;28;20225;-75
2021/11/08 07:31:34;;;;;;;3.22;2.97;;;7.10;99.90;;;;;;5073949;28;20752;-76
2021/11/08 07:34:01;;;;;;;1.65;1.55;;;7.30;99.90;;;;;;5074320;28;20299;-76
2021/11/08 07:36:28;;;;;;;3.50;3.20;;;7.40;99.90;;;;;;5074545;28;20287;-76
2021/11/08 07:38:54;;;;;;;0.50;0.40;;;7.50;99.90;;;;;;5074566;28;20213;-77
2021/11/08 07:41:23;;;;;;;1.70;1.25;;;7.60;99.90;;;;;;5073784;28;20195;-76
2021/11/08 07:43:50;;;;;;;2.60;1.75;;;7.70;99.90;;;;;;5074281;28;20198;-77
2021/11/08 07:46:17;;;;;;;2.90;2.05;;;7.70;99.90;;;;;;5074382;28;20200;-76
2021/11/08 07:48:45;;;;;;;2.25;1.25;;;7.90;99.90;;;;;;5074084;28;20229;-77
2021/11/08 07:51:14;;;;;;;3.28;1.48;;;8.00;99.90;;;;;;5074188;28;20581;-77
2021/11/08 07:53:41;;;;;;;2.17;1.17;;;8.30;99.90;;;;;;5063485;28;20549;-77
2021/11/08 07:56:08;;;;;;;0.50;0.40;;;8.60;99.90;;;;;;5051772;28;20224;-76
2021/11/08 07:58:39;;;;;;;0.50;0.40;;;8.50;99.90;;;;;;5069808;28;20221;-76
2021/11/08 08:01:06;;;;;;;0.98;0.98;;;8.50;99.90;;;;;;5074156;28;20493;-76
2021/11/08 08:03:34;;;;;;;1.20;1.20;;;8.50;99.90;;;;;;5058230;28;20193;-77
2021/11/08 08:06:02;;;;;;;3.65;2.20;;;8.50;99.90;;;;;;5054439;28;20196;-76
2021/11/08 08:08:29;;;;;;;1.98;0.88;;;8.40;99.90;;;;;;5054003;28;20228;-77
2021/11/08 08:10:56;;;;;;;3.97;1.58;;;8.30;99.90;;;;;;5057023;28;20203;-76
2021/11/08 08:13:25;;;;;;;1.63;0.98;;;8.20;99.90;;;;;;5074054;28;20274;-76
2021/11/08 08:15:58;;;;;;;8.27;2.55;;;8.10;99.90;;;;;;5073890;28;20214;-76
2021/11/08 08:18:25;;;;;;;0.80;0.50;;;8.10;99.90;;;;;;5073018;28;20228;-77
2021/11/08 08:20:52;;;;;;;1.15;1.15;;;8.10;99.90;;;;;;5073414;28;20246;-76
2021/11/08 08:23:19;;;;;;;1.33;1.23;;;8.10;99.90;;;;;;5073890;28;20196;-77
2021/11/08 08:25:46;;;;;;;23.92;4.38;;;8.10;99.90;;;;;;5073755;28;20211;-77
2021/11/08 08:28:14;;;;;;;2.45;2.25;;;8.10;99.90;;;;;;5073728;28;20215;-77
2021/11/08 08:30:41;;;;;;;0.50;0.40;;;8.00;99.90;;;;;;5073307;28;20293;-77
2021/11/08 08:33:09;;;;;;;0.77;0.77;;;8.00;99.90;;;;;;5073209;28;20205;-76
2021/11/08 08:35:40;;;;;;;0.50;0.40;;;8.10;99.90;;;;;;5073501;28;20238;-76
2021/11/08 08:38:08;;;;;;;2.03;1.92;;;8.10;99.90;;;;;;5073090;28;20219;-77
2021/11/08 08:40:35;;;;;;;16.50;11.57;;;8.20;99.90;;;;;;5058244;28;20697;-77
2021/11/08 08:43:02;;;;;;;0.70;0.55;;;8.20;99.90;;;;;;5066216;28;20580;-77
2021/11/08 08:45:29;;;;;;;0.60;0.60;;;8.20;99.90;;;;;;5073530;28;20278;-77
2021/11/08 08:47:56;;;;;;;0.50;0.45;;;8.20;99.90;;;;;;5065254;22;20313;-83
2021/11/08 08:50:24;;;;;;;1.40;1.33;;;8.20;99.90;;;;;;5027740;28;20209;-83
2021/11/08 08:52:51;;;;;;;5.90;2.78;;;8.20;99.90;;;;;;5037515;28;20270;-82
2021/11/08 08:55:18;;;;;;;0.63;0.63;;;8.20;99.90;;;;;;5041322;28;20287;-83
2021/11/08 08:57:46;;;;;;;0.50;0.50;;;8.20;99.90;;;;;;5039654;28;20257;-83
2021/11/08 09:00:16;;;;;;;8.98;1.15;;;8.20;99.90;;;;;;5038650;28;20207;-83
2021/11/08 09:02:43;;;;;;;2.45;2.25;;;8.20;99.90;;;;;;5038721;28;20214;-83
2021/11/08 09:05:11;;;;;;;0.50;0.40;;;8.30;99.90;;;;;;5038898;28;20260;-83
2021/11/08 09:07:39;;;;;;;0.50;0.40;;;8.40;99.90;;;;;;5039177;28;20221;-80
2021/11/08 09:10:07;;;;;;;0.50;0.40;;;8.40;99.90;;;;;;5039459;28;20207;-80
2021/11/08 09:12:34;;;;;;;5.20;3.30;;;8.50;99.90;;;;;;5044457;28;20202;-81
2021/11/08 09:15:00;;;;;;;0.50;0.40;;;8.50;99.90;;;;;;5040261;28;20581;-82
2021/11/08 09:17:28;;;;;;;3.45;2.80;;;8.60;99.90;;;;;;5038045;28;20215;-82
2021/11/08 09:19:55;;;;;;;0.70;0.70;;;8.70;99.90;;;;;;5037368;28;20219;-83
2021/11/08 09:22:21;;;;;;;9.35;1.70;;;8.70;99.90;;;;;;5037891;28;20205;-82
2021/11/08 09:24:50;;;;;;;1.05;0.82;;;8.70;99.90;;;;;;5037407;28;20669;-80
2021/11/08 09:27:17;;;;;;;1.13;0.95;;;8.70;99.90;;;;;;5037088;28;20578;-83
2021/11/08 09:29:44;;;;;;;0.90;0.90;;;8.50;99.90;;;;;;5036355;28;20198;-82
2021/11/08 09:32:11;;;;;;;1.02;0.93;;;8.50;99.90;;;;;;5036924;28;20662;-83
2021/11/08 09:34:44;;;;;;;0.50;0.40;;;8.50;99.90;;;;;;5038787;28;20197;-83
2021/11/08 09:37:14;;;;;;;5.30;3.90;;;8.50;99.90;;;;;;5037908;28;20239;-83
2021/11/08 09:39:42;;;;;;;4.00;3.45;;;8.50;99.90;;;;;;5038215;28;20194;-79
2021/11/08 09:42:12;;;;;;;2.60;2.00;;;8.50;99.90;;;;;;5038058;28;20190;-82
2021/11/08 09:44:40;;;;;;;0.80;0.70;;;8.60;99.90;;;;;;5037838;28;20191;-83
2021/11/08 09:47:08;;;;;;;0.50;0.40;;;8.80;99.90;;;;;;5038223;28;20226;-83
2021/11/08 09:49:39;;;;;;;2.75;1.65;;;9.00;99.90;;;;;;5038210;28;20259;-82
2021/11/08 09:52:06;;;;;;;0.50;0.40;;;9.60;99.90;;;;;;5037148;28;20632;-84
2021/11/08 09:54:40;;;;;;;0.50;0.40;;;10.30;99.90;;;;;;5038394;28;20206;-84
2021/11/08 09:57:08;;;;;;;37.45;5.35;;;10.60;99.90;;;;;;5037688;28;20509;-84
2021/11/08 09:59:37;;;;;;;0.50;0.50;;;10.80;99.90;;;;;;5037998;28;20309;-84
2021/11/08 10:02:11;;;;;;;0.57;0.55;;;10.80;99.90;;;;;;5046772;28;20198;-83
2021/11/08 10:04:39;;;;;;;0.50;0.40;;;10.90;99.90;;;;;;5040380;28;20652;-83
2021/11/08 10:07:06;;;;;;;1.33;0.97;;;11.20;99.90;;;;;;5038713;28;20724;-84
2021/11/08 10:09:33;;;;;;;3.90;3.57;;;11.70;99.90;;;;;;5037492;28;20430;-83
2021/11/08 10:12:00;;;;;;;0.60;0.53;;;11.80;99.90;;;;;;5037098;28;20449;-84
2021/11/08 10:14:28;;;;;;;6.80;3.17;;;12.00;99.90;;;;;;5036762;28;20442;-84
2021/11/08 10:16:58;;;;;;;0.77;0.77;;;12.10;99.90;;;;;;5037675;28;20617;-82
2021/11/08 10:19:26;;;;;;;2.43;0.80;;;12.30;99.90;;;;;;5036831;28;20995;-84
2021/11/08 10:21:56;;;;;;;1.13;0.90;;;12.90;99.90;;;;;;5037517;28;20453;-84
2021/11/08 10:24:26;;;;;;;0.50;0.30;;;13.30;99.90;;;;;;5038639;28;20438;-83
2021/11/08 10:26:55;;;;;;;1.67;1.57;;;14.00;99.90;;;;;;5036264;28;20433;-83
2021/11/08 10:29:24;;;;;;;0.60;0.60;;;14.80;99.90;;;;;;5037338;28;20442;-83
2021/11/08 10:31:54;;;;;;;1.00;0.97;;;15.30;99.90;;;;;;5037117;28;20446;-82
2021/11/08 10:34:23;;;;;;;2.53;2.00;;;15.40;99.90;;;;;;5037588;28;20436;-84
2021/11/08 10:36:58;;;;;;;8.80;3.23;;;14.90;99.90;;;;;;5036614;28;20983;-83
2021/11/08 10:39:25;;;;;;;0.60;0.60;;;14.20;99.90;;;;;;5037710;28;20426;-83
2021/11/08 10:41:53;;;;;;;7.10;1.70;;;13.70;99.90;;;;;;5036984;28;20748;-84
2021/11/08 10:44:23;;;;;;;0.50;0.40;;;13.30;99.90;;;;;;5037183;28;20442;-83
2021/11/08 10:46:55;;;;;;;0.50;0.40;;;13.40;99.90;;;;;;5036896;28;20462;-84
2021/11/08 10:49:25;;;;;;;0.50;0.40;;;13.40;99.90;;;;;;5037684;28;20460;-84
2021/11/08 10:51:56;;;;;;;0.60;0.50;;;13.60;99.90;;;;;;5037354;28;20851;-82
2021/11/08 10:54:25;;;;;;;0.50;0.30;;;13.80;99.90;;;;;;5037881;28;20439;-84
2021/11/08 10:56:56;;;;;;;0.50;0.33;;;14.10;99.90;;;;;;5037697;28;20481;-84
2021/11/08 10:59:27;;;;;;;0.60;0.60;;;14.40;99.90;;;;;;5037137;28;20445;-84
2021/11/08 11:01:56;;;;;;;0.60;0.50;;;14.80;99.90;;;;;;5023442;28;20465;-84
2021/11/08 11:04:31;;;;;;;0.50;0.40;;;14.70;99.90;;;;;;5037341;28;20438;-84
2021/11/08 11:06:58;;;;;;;1.00;1.00;;;14.30;99.90;;;;;;5037049;28;20454;-83
2021/11/08 11:09:27;;;;;;;0.50;0.40;;;14.20;99.90;;;;;;5036587;28;20472;-84
2021/11/08 11:12:07;;;;;;;0.50;0.40;;;14.10;99.90;;;;;;5036380;28;20442;-83
2021/11/08 11:14:34;;;;;;;0.57;0.50;;;14.00;99.90;;;;;;5037476;28;20470;-84
2021/11/08 11:17:07;;;;;;;1.90;1.80;;;13.80;99.90;;;;;;5036635;28;20494;-83
2021/11/08 11:19:37;;;;;;;10.33;2.10;;;13.30;99.90;;;;;;5037123;28;20530;-83
2021/11/08 11:22:07;;;;;;;17.63;2.50;;;13.00;99.90;;;;;;5035861;28;20452;-82
2021/11/08 11:24:42;;;;;;;0.67;0.67;;;13.00;99.90;;;;;;5038588;28;20478;-82
2021/11/08 11:27:13;;;;;;;1.13;1.03;;;13.10;99.90;;;;;;5035395;28;20557;-82
2021/11/08 11:29:40;;;;;;;0.50;0.40;;;13.30;99.90;;;;;;5036178;28;20424;-81
2021/11/08 11:32:24;;;;;;;0.50;0.40;;;13.50;99.90;;;;;;5035226;28;20440;-84
2021/11/08 11:34:53;;;;;;;0.50;0.40;;;13.70;99.90;;;;;;5035255;28;20488;-82
2021/11/08 11:37:22;;;;;;;0.50;0.40;;;14.30;99.90;;;;;;5036673;28;20489;-84
2021/11/08 11:39:50;;;;;;;0.50;0.40;;;14.80;99.90;;;;;;5036482;28;20446;-83
2021/11/08 11:42:17;;;;;;;0.50;0.40;;;14.90;99.90;;;;;;5035098;28;20445;-82
2021/11/08 11:44:46;;;;;;;0.50;0.30;;;14.80;99.90;;;;;;5036161;28;20453;-83
2021/11/08 11:47:17;;;;;;;0.50;0.50;;;14.60;99.90;;;;;;5036079;28;20474;-84
2021/11/08 11:49:45;;;;;;;0.50;0.37;;;14.60;99.90;;;;;;5036632;28;20431;-83
2021/11/08 11:52:13;;;;;;;0.50;0.40;;;14.40;99.90;;;;;;5037511;28;20454;-82
2021/11/08 11:54:40;;;;;;;0.50;0.30;;;14.30;99.90;;;;;;5040579;28;20438;-83
2021/11/08 11:57:08;;;;;;;0.60;0.60;;;14.30;99.90;;;;;;5040030;28;21012;-84
2021/11/08 11:59:34;;;;;;;0.50;0.40;;;14.40;99.90;;;;;;5040787;28;20449;-84
2021/11/08 12:02:02;;;;;;;0.50;0.40;;;14.50;99.90;;;;;;5040921;28;20441;-84
2021/11/08 12:04:29;;;;;;;0.50;0.40;;;14.70;99.90;;;;;;5041044;28;20591;-84
2021/11/08 12:07:00;;;;;;;1.27;1.17;;;14.60;99.90;;;;;;5040937;28;20464;-84
2021/11/08 12:09:31;;;;;;;0.50;0.40;;;14.30;99.90;;;;;;5039742;28;20446;-82
2021/11/08 12:11:58;;;;;;;0.80;0.80;;;14.20;99.90;;;;;;5039603;28;20470;-82
2021/11/08 12:14:27;;;;;;;5.70;1.63;;;14.20;99.90;;;;;;5040013;28;20469;-83
2021/11/08 12:16:58;;;;;;;0.50;0.50;;;13.90;99.90;;;;;;5039322;28;20867;-83
2021/11/08 12:19:28;;;;;;;1.43;1.03;;;13.70;99.90;;;;;;5040080;28;20435;-83
2021/11/08 12:21:56;;;;;;;5.50;2.97;;;13.40;99.90;;;;;;5039032;28;20433;-83
2021/11/08 12:24:28;;;;;;;0.50;0.40;;;13.00;99.90;;;;;;5039620;28;20450;-83
2021/11/08 12:27:07;;;;;;;0.50;0.40;;;12.90;99.90;;;;;;5042358;28;20505;-84
2021/11/08 12:29:45;;;;;;;0.97;0.97;;;12.90;99.90;;;;;;5039103;28;20434;-82
2021/11/08 12:32:12;;;;;;;1.23;1.13;;;12.70;99.90;;;;;;5039435;28;20940;-83
2021/11/08 12:34:41;;;;;;;0.50;0.40;;;12.40;99.90;;;;;;5039109;28;20936;-82
2021/11/08 12:37:09;;;;;;;0.50;0.40;;;12.30;99.90;;;;;;5045393;28;20581;-82
2021/11/08 12:39:36;;;;;;;0.50;0.40;;;12.40;99.90;;;;;;5047618;28;20446;-82
2021/11/08 12:42:08;;;;;;;7.57;1.30;;;12.60;99.90;;;;;;5045200;28;20881;-83
2021/11/08 12:44:38;;;;;;;0.50;0.40;;;12.40;99.90;;;;;;5040355;28;20812;-84
2021/11/08 12:47:06;;;;;;;1.57;1.47;;;12.10;99.90;;;;;;5040204;28;20533;-84
2021/11/08 12:49:40;;;;;;;2.60;2.40;;;12.00;99.90;;;;;;5039899;28;20561;-84
2021/11/08 12:52:14;;;;;;;0.50;0.47;;;11.60;99.90;;;;;;5040259;28;20546;-84
2021/11/08 12:54:48;;;;;;;3.07;2.37;;;11.40;99.90;;;;;;5039815;28;20194;-84
2021/11/08 12:57:18;;;;;;;0.50;0.50;;;11.50;99.90;;;;;;5039854;28;20484;-84
2021/11/08 12:59:47;;;;;;;0.50;0.40;;;11.60;99.90;;;;;;5040193;28;20916;-84
2021/11/08 13:02:25;;;;;;;0.50;0.40;;;11.80;99.90;;;;;;5041349;28;20453;-84
2021/11/08 13:04:55;;;;;;;0.50;0.37;;;12.00;99.90;;;;;;5044920;28;20493;-81
2021/11/08 13:07:23;;;;;;;1.23;1.13;;;12.30;99.90;;;;;;5043172;28;20488;-83
2021/11/08 13:09:53;;;;;;;19.53;2.13;;;12.70;99.90;;;;;;5040999;28;20438;-83
2021/11/08 13:12:23;;;;;;;0.60;0.57;;;12.80;99.90;;;;;;5040618;28;20457;-83
2021/11/08 13:15:02;;;;;;;1.80;1.70;;;12.70;99.90;;;;;;5041240;28;20445;-80
2021/11/08 13:17:30;;;;;;;0.50;0.40;;;12.60;99.90;;;;;;5040895;28;20486;-84
2021/11/08 13:20:02;;;;;;;0.50;0.40;;;12.70;99.90;;;;;;5040496;28;20445;-83
2021/11/08 13:22:35;;;;;;;0.50;0.40;;;13.00;99.90;;;;;;5039715;28;20436;-83
2021/11/08 13:25:06;;;;;;;0.50;0.33;;;13.40;99.90;;;;;;5039788;28;20543;-84
2021/11/08 13:27:36;;;;;;;0.50;0.30;;;13.80;99.90;;;;;;5038846;28;20469;-82
2021/11/08 13:30:08;;;;;;;0.97;0.50;;;13.90;99.90;;;;;;5038452;28;20442;-79
2021/11/08 13:32:36;;;;;;;0.50;0.40;;;14.10;99.90;;;;;;5039128;28;20443;-82
2021/11/08 13:35:13;;;;;;;0.97;0.87;;;14.10;99.90;;;;;;5039301;28;20445;-84
2021/11/08 13:37:41;;;;;;;2.20;2.10;;;13.90;99.90;;;;;;5039002;28;20835;-81
2021/11/08 13:40:18;;;;;;;2.10;0.80;;;13.70;99.90;;;;;;5039244;28;20439;-83
2021/11/08 13:42:46;;;;;;;0.60;0.50;;;13.70;99.90;;;;;;5039009;28;20437;-83
2021/11/08 13:45:14;;;;;;;0.50;0.30;;;13.90;99.90;;;;;;5039601;28;20453;-83
2021/11/08 13:47:42;;;;;;;0.50;0.30;;;14.00;99.90;;;;;;5046630;28;20537;-79
2021/11/08 13:50:13;;;;;;;0.50;0.40;;;14.10;99.90;;;;;;5040276;28;20458;-84
2021/11/08 13:52:41;;;;;;;0.50;0.40;;;13.70;99.90;;;;;;5038849;28;20474;-83
2021/11/08 13:55:10;;;;;;;0.60;0.50;;;13.40;99.90;;;;;;5038448;28;20449;-83
2021/11/08 13:57:40;;;;;;;0.50;0.40;;;13.20;99.90;;;;;;5038998;28;20645;-83
2021/11/08 14:00:12;;;;;;;0.80;0.60;;;13.00;99.90;;;;;;5038692;28;20440;-83
2021/11/08 14:02:39;;;;;;;0.60;0.50;;;12.70;99.90;;;;;;5038884;28;20442;-83
2021/11/08 14:05:07;;;;;;;0.50;0.40;;;12.60;99.90;;;;;;5038718;28;20506;-82
2021/11/08 14:07:34;;;;;;;0.50;0.40;;;12.30;99.90;;;;;;5039446;28;20533;-84
2021/11/08 14:10:01;;;;;;;0.50;0.40;;;12.30;99.90;;;;;;5039548;28;20449;-83
2021/11/08 14:12:31;;;;;;;0.50;0.40;;;12.20;99.90;;;;;;5039031;28;20461;-83
2021/11/08 14:14:59;;;;;;;0.50;0.50;;;12.20;99.90;;;;;;5038648;28;20473;-83
2021/11/08 14:17:28;;;;;;;0.50;0.40;;;12.10;99.90;;;;;;5042917;28;20930;-82
2021/11/08 14:19:57;;;;;;;0.50;0.40;;;12.10;99.90;;;;;;5037818;28;20444;-83
2021/11/08 14:22:25;;;;;;;0.50;0.40;;;12.00;99.90;;;;;;5038168;28;20439;-84